sensor_id;sensor_type;location;lat;lon;timestamp;temperature;humidity
16271;DHT22;8243;49.048;8.396;2023-02-17T00:00:08;11.20;29.00
16271;DHT22;8243;49.048;8.396;2023-02-17T00:02:36;11.20;28.90
16271;DHT22;8243;49.048;8.396;2023-02-17T00:05:02;11.20;29.20
16271;DHT22;8243;49.048;8.396;2023-02-17T00:07:30;11.10;29.50
16271;DHT22;8243;49.048;8.396;2023-02-17T00:09:56;11.10;29.40
16271;DHT22;8243;49.048;8.396;2023-02-17T00:12:22;11.10;29.70
16271;DHT22;8243;49.048;8.396;2023-02-17T00:14:47;11.00;29.50
16271;DHT22;8243;49.048;8.396;2023-02-17T00:17:13;11.10;29.80
16271;DHT22;8243;49.048;8.396;2023-02-17T00:19:38;11.00;29.70
16271;DHT22;8243;49.048;8.396;2023-02-17T00:22:04;11.00;29.80
16271;DHT22;8243;49.048;8.396;2023-02-17T00:24:30;11.00;29.90
16271;DHT22;8243;49.048;8.396;2023-02-17T00:26:56;11.00;30.00
16271;DHT22;8243;49.048;8.396;2023-02-17T00:29:22;10.90;30.10
16271;DHT22;8243;49.048;8.396;2023-02-17T00:31:47;10.90;30.00
16271;DHT22;8243;49.048;8.396;2023-02-17T00:34:16;11.00;29.70
16271;DHT22;8243;49.048;8.396;2023-02-17T00:36:41;10.90;29.60
16271;DHT22;8243;49.048;8.396;2023-02-17T00:39:07;10.90;29.60
16271;DHT22;8243;49.048;8.396;2023-02-17T00:41:33;10.90;29.60
16271;DHT22;8243;49.048;8.396;2023-02-17T00:43:59;10.90;29.50
16271;DHT22;8243;49.048;8.396;2023-02-17T00:46:25;10.90;29.50
16271;DHT22;8243;49.048;8.396;2023-02-17T00:48:51;10.90;29.50
16271;DHT22;8243;49.048;8.396;2023-02-17T00:51:17;11.00;29.40
16271;DHT22;8243;49.048;8.396;2023-02-17T00:53:43;11.00;29.30
16271;DHT22;8243;49.048;8.396;2023-02-17T00:56:10;11.00;29.10
16271;DHT22;8243;49.048;8.396;2023-02-17T00:58:36;11.00;29.20
16271;DHT22;8243;49.048;8.396;2023-02-17T01:01:02;11.00;29.40
16271;DHT22;8243;49.048;8.396;2023-02-17T01:03:28;11.20;29.20
16271;DHT22;8243;49.048;8.396;2023-02-17T01:05:54;11.10;29.00
16271;DHT22;8243;49.048;8.396;2023-02-17T01:08:20;11.20;28.60
16271;DHT22;8243;49.048;8.396;2023-02-17T01:10:47;11.30;28.10
16271;DHT22;8243;49.048;8.396;2023-02-17T01:13:15;11.40;28.20
16271;DHT22;8243;49.048;8.396;2023-02-17T01:15:43;11.40;27.60
16271;DHT22;8243;49.048;8.396;2023-02-17T01:18:09;11.40;27.30
16271;DHT22;8243;49.048;8.396;2023-02-17T01:20:36;11.40;27.20
16271;DHT22;8243;49.048;8.396;2023-02-17T01:23:03;11.40;27.40
16271;DHT22;8243;49.048;8.396;2023-02-17T01:25:30;11.40;27.60
16271;DHT22;8243;49.048;8.396;2023-02-17T01:27:56;11.40;27.50
16271;DHT22;8243;49.048;8.396;2023-02-17T01:30:21;11.40;27.60
16271;DHT22;8243;49.048;8.396;2023-02-17T01:32:47;11.40;27.60
16271;DHT22;8243;49.048;8.396;2023-02-17T01:35:13;11.40;27.80
16271;DHT22;8243;49.048;8.396;2023-02-17T01:37:38;11.30;27.90
16271;DHT22;8243;49.048;8.396;2023-02-17T01:40:04;11.30;28.20
16271;DHT22;8243;49.048;8.396;2023-02-17T01:42:30;11.30;28.40
16271;DHT22;8243;49.048;8.396;2023-02-17T01:50:09;11.10;29.10
16271;DHT22;8243;49.048;8.396;2023-02-17T01:52:35;11.00;29.70
16271;DHT22;8243;49.048;8.396;2023-02-17T01:55:05;11.00;30.10
16271;DHT22;8243;49.048;8.396;2023-02-17T01:57:34;11.00;30.50
16271;DHT22;8243;49.048;8.396;2023-02-17T02:00:02;11.00;30.80
16271;DHT22;8243;49.048;8.396;2023-02-17T02:02:28;11.00;31.30
16271;DHT22;8243;49.048;8.396;2023-02-17T02:04:55;11.10;31.40
16271;DHT22;8243;49.048;8.396;2023-02-17T02:07:34;11.00;31.30
16271;DHT22;8243;49.048;8.396;2023-02-17T02:10:00;11.10;31.40
16271;DHT22;8243;49.048;8.396;2023-02-17T02:14:55;11.30;31.60
16271;DHT22;8243;49.048;8.396;2023-02-17T02:20:22;11.20;31.40
16271;DHT22;8243;49.048;8.396;2023-02-17T02:34:37;11.10;33.90
16271;DHT22;8243;49.048;8.396;2023-02-17T02:37:13;11.20;34.10
16271;DHT22;8243;49.048;8.396;2023-02-17T02:39:43;11.10;34.10
16271;DHT22;8243;49.048;8.396;2023-02-17T02:42:15;11.10;34.40
16271;DHT22;8243;49.048;8.396;2023-02-17T02:44:42;11.10;34.80
16271;DHT22;8243;49.048;8.396;2023-02-17T02:50:08;11.10;36.60
16271;DHT22;8243;49.048;8.396;2023-02-17T02:52:55;11.10;37.70
16271;DHT22;8243;49.048;8.396;2023-02-17T02:58:20;11.10;39.30
16271;DHT22;8243;49.048;8.396;2023-02-17T03:01:15;11.20;41.50
16271;DHT22;8243;49.048;8.396;2023-02-17T03:06:20;11.30;44.70
16271;DHT22;8243;49.048;8.396;2023-02-17T03:08:52;11.30;45.80
16271;DHT22;8243;49.048;8.396;2023-02-17T03:11:23;11.20;46.50
16271;DHT22;8243;49.048;8.396;2023-02-17T03:14:06;11.10;48.10
16271;DHT22;8243;49.048;8.396;2023-02-17T03:16:34;11.10;50.90
16271;DHT22;8243;49.048;8.396;2023-02-17T03:18:59;11.00;51.80
16271;DHT22;8243;49.048;8.396;2023-02-17T03:21:36;11.00;52.40
16271;DHT22;8243;49.048;8.396;2023-02-17T03:24:02;11.00;52.20
16271;DHT22;8243;49.048;8.396;2023-02-17T03:26:28;10.90;52.80
16271;DHT22;8243;49.048;8.396;2023-02-17T03:28:54;11.00;54.00
16271;DHT22;8243;49.048;8.396;2023-02-17T03:31:19;11.00;55.00
16271;DHT22;8243;49.048;8.396;2023-02-17T03:33:45;11.00;56.00
16271;DHT22;8243;49.048;8.396;2023-02-17T03:36:10;11.00;58.20
16271;DHT22;8243;49.048;8.396;2023-02-17T03:38:36;11.00;60.00
16271;DHT22;8243;49.048;8.396;2023-02-17T03:41:01;11.00;61.70
16271;DHT22;8243;49.048;8.396;2023-02-17T03:43:27;11.00;63.00
16271;DHT22;8243;49.048;8.396;2023-02-17T03:45:53;11.10;64.60
16271;DHT22;8243;49.048;8.396;2023-02-17T03:48:18;11.00;66.70
16271;DHT22;8243;49.048;8.396;2023-02-17T03:50:44;11.00;68.80
16271;DHT22;8243;49.048;8.396;2023-02-17T03:53:10;11.00;71.60
16271;DHT22;8243;49.048;8.396;2023-02-17T03:55:36;11.00;72.40
16271;DHT22;8243;49.048;8.396;2023-02-17T03:58:01;10.90;74.20
16271;DHT22;8243;49.048;8.396;2023-02-17T04:00:27;10.90;75.40
16271;DHT22;8243;49.048;8.396;2023-02-17T04:02:53;10.90;77.40
16271;DHT22;8243;49.048;8.396;2023-02-17T04:05:21;11.00;78.30
16271;DHT22;8243;49.048;8.396;2023-02-17T04:07:47;11.00;79.80
16271;DHT22;8243;49.048;8.396;2023-02-17T04:10:13;11.00;80.90
16271;DHT22;8243;49.048;8.396;2023-02-17T04:12:38;11.00;81.70
16271;DHT22;8243;49.048;8.396;2023-02-17T04:15:04;11.00;82.10
16271;DHT22;8243;49.048;8.396;2023-02-17T04:17:30;11.00;82.80
16271;DHT22;8243;49.048;8.396;2023-02-17T04:19:55;11.00;82.80
16271;DHT22;8243;49.048;8.396;2023-02-17T04:22:21;11.10;82.50
16271;DHT22;8243;49.048;8.396;2023-02-17T04:24:46;11.00;81.90
16271;DHT22;8243;49.048;8.396;2023-02-17T04:27:12;11.00;82.10
16271;DHT22;8243;49.048;8.396;2023-02-17T04:29:37;11.00;82.40
16271;DHT22;8243;49.048;8.396;2023-02-17T04:32:03;11.10;83.00
16271;DHT22;8243;49.048;8.396;2023-02-17T04:34:28;11.00;83.80
16271;DHT22;8243;49.048;8.396;2023-02-17T04:36:54;11.10;83.50
16271;DHT22;8243;49.048;8.396;2023-02-17T04:39:19;11.00;83.30
16271;DHT22;8243;49.048;8.396;2023-02-17T04:41:45;11.00;83.40
16271;DHT22;8243;49.048;8.396;2023-02-17T04:44:11;11.10;83.10
16271;DHT22;8243;49.048;8.396;2023-02-17T04:46:36;11.00;82.70
16271;DHT22;8243;49.048;8.396;2023-02-17T04:49:02;11.00;82.90
16271;DHT22;8243;49.048;8.396;2023-02-17T04:51:27;10.90;82.90
16271;DHT22;8243;49.048;8.396;2023-02-17T04:53:53;10.90;82.60
16271;DHT22;8243;49.048;8.396;2023-02-17T04:56:19;10.90;81.40
16271;DHT22;8243;49.048;8.396;2023-02-17T04:58:44;10.80;78.70
16271;DHT22;8243;49.048;8.396;2023-02-17T05:01:10;10.80;73.00
16271;DHT22;8243;49.048;8.396;2023-02-17T05:03:35;10.80;70.50
16271;DHT22;8243;49.048;8.396;2023-02-17T05:06:01;10.70;68.50
16271;DHT22;8243;49.048;8.396;2023-02-17T05:08:27;10.60;68.40
16271;DHT22;8243;49.048;8.396;2023-02-17T05:10:52;10.60;67.90
16271;DHT22;8243;49.048;8.396;2023-02-17T05:13:18;10.60;67.30
16271;DHT22;8243;49.048;8.396;2023-02-17T05:15:44;10.60;67.10
16271;DHT22;8243;49.048;8.396;2023-02-17T05:18:10;10.60;67.40
16271;DHT22;8243;49.048;8.396;2023-02-17T05:20:35;10.60;67.40
16271;DHT22;8243;49.048;8.396;2023-02-17T05:23:01;10.60;68.40
16271;DHT22;8243;49.048;8.396;2023-02-17T05:25:27;10.60;67.60
16271;DHT22;8243;49.048;8.396;2023-02-17T05:27:52;10.60;67.90
16271;DHT22;8243;49.048;8.396;2023-02-17T05:30:18;10.60;68.40
16271;DHT22;8243;49.048;8.396;2023-02-17T05:32:43;10.60;69.00
16271;DHT22;8243;49.048;8.396;2023-02-17T05:35:09;10.60;69.50
16271;DHT22;8243;49.048;8.396;2023-02-17T05:37:35;10.70;71.00
16271;DHT22;8243;49.048;8.396;2023-02-17T05:40:00;10.70;72.00
16271;DHT22;8243;49.048;8.396;2023-02-17T05:42:26;10.80;73.00
16271;DHT22;8243;49.048;8.396;2023-02-17T05:44:54;10.80;74.00
16271;DHT22;8243;49.048;8.396;2023-02-17T05:47:20;10.80;77.00
16271;DHT22;8243;49.048;8.396;2023-02-17T05:49:45;10.70;80.10
16271;DHT22;8243;49.048;8.396;2023-02-17T05:52:11;10.70;84.10
16271;DHT22;8243;49.048;8.396;2023-02-17T05:54:36;10.60;86.80
16271;DHT22;8243;49.048;8.396;2023-02-17T05:57:02;10.60;88.90
16271;DHT22;8243;49.048;8.396;2023-02-17T05:59:27;10.60;89.30
16271;DHT22;8243;49.048;8.396;2023-02-17T06:01:53;10.60;90.00
16271;DHT22;8243;49.048;8.396;2023-02-17T06:04:19;10.60;90.00
16271;DHT22;8243;49.048;8.396;2023-02-17T06:06:44;10.70;90.00
16271;DHT22;8243;49.048;8.396;2023-02-17T06:09:10;10.70;90.20
16271;DHT22;8243;49.048;8.396;2023-02-17T06:11:35;10.70;90.50
16271;DHT22;8243;49.048;8.396;2023-02-17T06:14:01;10.60;90.60
16271;DHT22;8243;49.048;8.396;2023-02-17T06:16:27;10.70;90.90
16271;DHT22;8243;49.048;8.396;2023-02-17T06:18:52;10.70;91.20
16271;DHT22;8243;49.048;8.396;2023-02-17T06:21:18;10.80;91.50
16271;DHT22;8243;49.048;8.396;2023-02-17T06:23:43;10.70;91.60
16271;DHT22;8243;49.048;8.396;2023-02-17T06:26:09;10.90;91.80
16271;DHT22;8243;49.048;8.396;2023-02-17T06:28:34;10.80;91.90
16271;DHT22;8243;49.048;8.396;2023-02-17T06:31:00;10.80;92.10
16271;DHT22;8243;49.048;8.396;2023-02-17T06:33:25;10.80;92.50
16271;DHT22;8243;49.048;8.396;2023-02-17T06:35:51;10.80;93.10
16271;DHT22;8243;49.048;8.396;2023-02-17T06:38:18;10.80;93.50
16271;DHT22;8243;49.048;8.396;2023-02-17T06:40:43;10.80;94.10
16271;DHT22;8243;49.048;8.396;2023-02-17T06:43:09;10.80;94.80
16271;DHT22;8243;49.048;8.396;2023-02-17T06:45:34;10.80;95.00
16271;DHT22;8243;49.048;8.396;2023-02-17T06:48:00;10.90;95.40
16271;DHT22;8243;49.048;8.396;2023-02-17T06:50:26;10.90;95.40
16271;DHT22;8243;49.048;8.396;2023-02-17T06:52:51;10.90;95.30
16271;DHT22;8243;49.048;8.396;2023-02-17T06:55:17;10.90;95.40
16271;DHT22;8243;49.048;8.396;2023-02-17T06:57:42;11.00;95.50
16271;DHT22;8243;49.048;8.396;2023-02-17T07:00:08;11.00;95.70
16271;DHT22;8243;49.048;8.396;2023-02-17T07:02:37;11.00;95.50
16271;DHT22;8243;49.048;8.396;2023-02-17T07:05:03;11.00;95.30
16271;DHT22;8243;49.048;8.396;2023-02-17T07:07:28;11.10;94.90
16271;DHT22;8243;49.048;8.396;2023-02-17T07:09:54;11.10;94.50
16271;DHT22;8243;49.048;8.396;2023-02-17T07:12:20;11.10;94.00
16271;DHT22;8243;49.048;8.396;2023-02-17T07:14:46;11.10;93.50
16271;DHT22;8243;49.048;8.396;2023-02-17T07:17:11;11.20;92.60
16271;DHT22;8243;49.048;8.396;2023-02-17T07:19:37;11.20;91.50
16271;DHT22;8243;49.048;8.396;2023-02-17T07:22:02;11.20;90.40
16271;DHT22;8243;49.048;8.396;2023-02-17T07:24:28;11.20;90.00
16271;DHT22;8243;49.048;8.396;2023-02-17T07:26:54;11.30;89.40
16271;DHT22;8243;49.048;8.396;2023-02-17T07:29:21;11.30;87.60
16271;DHT22;8243;49.048;8.396;2023-02-17T07:31:46;11.30;86.30
16271;DHT22;8243;49.048;8.396;2023-02-17T07:34:12;11.40;85.90
16271;DHT22;8243;49.048;8.396;2023-02-17T07:36:38;11.40;85.80
16271;DHT22;8243;49.048;8.396;2023-02-17T07:39:04;11.40;85.60
16271;DHT22;8243;49.048;8.396;2023-02-17T07:41:29;11.40;85.60
16271;DHT22;8243;49.048;8.396;2023-02-17T07:43:57;11.40;84.50
16271;DHT22;8243;49.048;8.396;2023-02-17T07:46:24;11.40;82.80
16271;DHT22;8243;49.048;8.396;2023-02-17T07:48:49;11.40;82.80
16271;DHT22;8243;49.048;8.396;2023-02-17T07:51:18;11.40;82.60
16271;DHT22;8243;49.048;8.396;2023-02-17T07:53:45;11.30;82.00
16271;DHT22;8243;49.048;8.396;2023-02-17T07:56:13;11.40;82.40
16271;DHT22;8243;49.048;8.396;2023-02-17T07:58:40;11.30;82.30
16271;DHT22;8243;49.048;8.396;2023-02-17T08:01:15;11.30;82.80
16271;DHT22;8243;49.048;8.396;2023-02-17T08:03:41;11.30;84.60
16271;DHT22;8243;49.048;8.396;2023-02-17T08:06:25;11.30;85.90
16271;DHT22;8243;49.048;8.396;2023-02-17T08:08:52;11.20;85.40
16271;DHT22;8243;49.048;8.396;2023-02-17T08:11:37;11.20;86.10
16271;DHT22;8243;49.048;8.396;2023-02-17T08:14:23;11.10;88.70
16271;DHT22;8243;49.048;8.396;2023-02-17T08:16:49;11.10;91.10
16271;DHT22;8243;49.048;8.396;2023-02-17T08:19:14;11.10;92.20
16271;DHT22;8243;49.048;8.396;2023-02-17T08:21:40;11.00;93.90
16271;DHT22;8243;49.048;8.396;2023-02-17T08:24:05;11.00;96.10
16271;DHT22;8243;49.048;8.396;2023-02-17T08:26:31;10.90;96.50
16271;DHT22;8243;49.048;8.396;2023-02-17T08:28:57;11.00;96.60
16271;DHT22;8243;49.048;8.396;2023-02-17T08:31:28;11.00;96.20
16271;DHT22;8243;49.048;8.396;2023-02-17T08:33:55;11.00;96.40
16271;DHT22;8243;49.048;8.396;2023-02-17T08:36:22;11.00;96.00
16271;DHT22;8243;49.048;8.396;2023-02-17T08:38:52;11.10;96.00
16271;DHT22;8243;49.048;8.396;2023-02-17T08:41:24;11.00;96.40
16271;DHT22;8243;49.048;8.396;2023-02-17T08:43:50;11.10;97.00
16271;DHT22;8243;49.048;8.396;2023-02-17T08:46:17;11.10;98.20
16271;DHT22;8243;49.048;8.396;2023-02-17T08:48:43;11.10;99.90
16271;DHT22;8243;49.048;8.396;2023-02-17T08:51:14;11.00;99.90
16271;DHT22;8243;49.048;8.396;2023-02-17T08:53:40;11.10;99.90
16271;DHT22;8243;49.048;8.396;2023-02-17T08:56:07;11.10;99.90
16271;DHT22;8243;49.048;8.396;2023-02-17T08:58:35;11.20;99.90
16271;DHT22;8243;49.048;8.396;2023-02-17T09:01:02;11.20;99.90
16271;DHT22;8243;49.048;8.396;2023-02-17T09:03:28;11.20;99.90
16271;DHT22;8243;49.048;8.396;2023-02-17T09:05:55;11.20;99.90
16271;DHT22;8243;49.048;8.396;2023-02-17T09:08:21;11.20;99.90
16271;DHT22;8243;49.048;8.396;2023-02-17T09:10:48;11.10;99.90
16271;DHT22;8243;49.048;8.396;2023-02-17T09:13:13;11.10;99.90
16271;DHT22;8243;49.048;8.396;2023-02-17T09:15:39;11.10;99.90
16271;DHT22;8243;49.048;8.396;2023-02-17T09:18:05;11.10;99.90
16271;DHT22;8243;49.048;8.396;2023-02-17T09:20:30;11.00;99.90
16271;DHT22;8243;49.048;8.396;2023-02-17T09:22:56;11.10;99.90
16271;DHT22;8243;49.048;8.396;2023-02-17T09:25:21;11.10;99.90
16271;DHT22;8243;49.048;8.396;2023-02-17T09:27:47;11.10;99.90
16271;DHT22;8243;49.048;8.396;2023-02-17T09:30:13;11.20;99.90
16271;DHT22;8243;49.048;8.396;2023-02-17T09:32:42;11.20;99.90
16271;DHT22;8243;49.048;8.396;2023-02-17T09:35:13;11.20;99.90
16271;DHT22;8243;49.048;8.396;2023-02-17T09:37:39;11.20;99.90
16271;DHT22;8243;49.048;8.396;2023-02-17T09:40:05;11.20;99.90
16271;DHT22;8243;49.048;8.396;2023-02-17T09:42:35;11.30;99.90
16271;DHT22;8243;49.048;8.396;2023-02-17T09:45:12;11.50;99.90
16271;DHT22;8243;49.048;8.396;2023-02-17T09:47:45;11.60;99.90
16271;DHT22;8243;49.048;8.396;2023-02-17T09:51:00;11.70;99.90
16271;DHT22;8243;49.048;8.396;2023-02-17T09:53:09;11.80;99.90
16271;DHT22;8243;49.048;8.396;2023-02-17T09:55:42;11.90;99.90
16271;DHT22;8243;49.048;8.396;2023-02-17T09:58:17;12.00;99.90
16271;DHT22;8243;49.048;8.396;2023-02-17T10:00:48;12.00;99.90
16271;DHT22;8243;49.048;8.396;2023-02-17T10:03:24;12.00;99.90
16271;DHT22;8243;49.048;8.396;2023-02-17T10:08:34;12.20;99.80
16271;DHT22;8243;49.048;8.396;2023-02-17T10:11:10;12.30;97.20
16271;DHT22;8243;49.048;8.396;2023-02-17T10:13:40;12.30;95.40
16271;DHT22;8243;49.048;8.396;2023-02-17T10:16:12;12.30;94.20
16271;DHT22;8243;49.048;8.396;2023-02-17T10:18:44;12.40;92.40
16271;DHT22;8243;49.048;8.396;2023-02-17T10:21:30;12.40;91.20
16271;DHT22;8243;49.048;8.396;2023-02-17T10:23:57;12.50;89.40
16271;DHT22;8243;49.048;8.396;2023-02-17T10:26:46;12.50;88.30
16271;DHT22;8243;49.048;8.396;2023-02-17T10:29:23;12.60;87.20
16271;DHT22;8243;49.048;8.396;2023-02-17T10:32:05;12.70;85.70
16271;DHT22;8243;49.048;8.396;2023-02-17T10:34:36;12.90;83.80
16271;DHT22;8243;49.048;8.396;2023-02-17T10:37:14;13.00;81.60
16271;DHT22;8243;49.048;8.396;2023-02-17T10:39:46;13.00;80.50
16271;DHT22;8243;49.048;8.396;2023-02-17T10:42:20;13.10;79.80
16271;DHT22;8243;49.048;8.396;2023-02-17T10:44:48;13.00;77.80
16271;DHT22;8243;49.048;8.396;2023-02-17T10:47:14;13.00;77.20
16271;DHT22;8243;49.048;8.396;2023-02-17T10:49:43;13.00;76.60
16271;DHT22;8243;49.048;8.396;2023-02-17T10:52:20;13.10;75.40
16271;DHT22;8243;49.048;8.396;2023-02-17T10:55:00;13.20;74.60
16271;DHT22;8243;49.048;8.396;2023-02-17T10:57:34;13.30;73.80
16271;DHT22;8243;49.048;8.396;2023-02-17T11:00:00;13.20;73.60
16271;DHT22;8243;49.048;8.396;2023-02-17T11:02:43;13.20;73.50
16271;DHT22;8243;49.048;8.396;2023-02-17T11:05:21;13.10;74.10
16271;DHT22;8243;49.048;8.396;2023-02-17T11:07:47;13.00;74.80
16271;DHT22;8243;49.048;8.396;2023-02-17T11:10:31;12.90;75.80
16271;DHT22;8243;49.048;8.396;2023-02-17T11:12:58;12.80;77.00
16271;DHT22;8243;49.048;8.396;2023-02-17T11:15:29;12.80;77.40
16271;DHT22;8243;49.048;8.396;2023-02-17T11:17:58;13.00;77.40
16271;DHT22;8243;49.048;8.396;2023-02-17T11:20:29;13.30;75.30
16271;DHT22;8243;49.048;8.396;2023-02-17T11:23:21;13.50;73.70
16271;DHT22;8243;49.048;8.396;2023-02-17T11:26:17;13.80;73.10
16271;DHT22;8243;49.048;8.396;2023-02-17T11:28:45;14.10;70.00
16271;DHT22;8243;49.048;8.396;2023-02-17T11:31:26;14.10;69.00
16271;DHT22;8243;49.048;8.396;2023-02-17T11:33:52;14.00;69.10
16271;DHT22;8243;49.048;8.396;2023-02-17T11:36:23;13.70;70.80
16271;DHT22;8243;49.048;8.396;2023-02-17T11:38:49;13.40;72.80
16271;DHT22;8243;49.048;8.396;2023-02-17T11:41:15;13.20;75.00
16271;DHT22;8243;49.048;8.396;2023-02-17T11:44:02;13.00;77.30
16271;DHT22;8243;49.048;8.396;2023-02-17T11:55:04;12.90;83.30
16271;DHT22;8243;49.048;8.396;2023-02-17T11:57:39;13.00;83.50
16271;DHT22;8243;49.048;8.396;2023-02-17T12:00:13;13.20;82.00
16271;DHT22;8243;49.048;8.396;2023-02-17T12:12:13;13.60;78.70
16271;DHT22;8243;49.048;8.396;2023-02-17T12:17:44;13.80;76.90
16271;DHT22;8243;49.048;8.396;2023-02-17T12:31:41;14.00;75.50
16271;DHT22;8243;49.048;8.396;2023-02-17T12:34:22;14.00;75.60
16271;DHT22;8243;49.048;8.396;2023-02-17T12:36:50;13.90;75.70
16271;DHT22;8243;49.048;8.396;2023-02-17T12:39:38;13.90;76.10
16271;DHT22;8243;49.048;8.396;2023-02-17T12:42:12;14.00;76.00
16271;DHT22;8243;49.048;8.396;2023-02-17T12:44:49;14.20;74.90
16271;DHT22;8243;49.048;8.396;2023-02-17T12:47:20;14.50;73.20
16271;DHT22;8243;49.048;8.396;2023-02-17T12:50:26;14.60;71.60
16271;DHT22;8243;49.048;8.396;2023-02-17T12:52:57;14.60;71.30
16271;DHT22;8243;49.048;8.396;2023-02-17T12:55:50;14.70;70.60
16271;DHT22;8243;49.048;8.396;2023-02-17T12:58:20;14.80;69.90
16271;DHT22;8243;49.048;8.396;2023-02-17T13:00:51;14.60;69.30
16271;DHT22;8243;49.048;8.396;2023-02-17T13:03:18;14.50;70.90
16271;DHT22;8243;49.048;8.396;2023-02-17T13:06:03;14.70;69.50
16271;DHT22;8243;49.048;8.396;2023-02-17T13:08:38;14.60;69.40
16271;DHT22;8243;49.048;8.396;2023-02-17T13:11:12;14.60;69.30
16271;DHT22;8243;49.048;8.396;2023-02-17T13:13:39;14.50;69.80
16271;DHT22;8243;49.048;8.396;2023-02-17T13:16:12;14.40;69.70
16271;DHT22;8243;49.048;8.396;2023-02-17T13:18:50;14.30;71.00
16271;DHT22;8243;49.048;8.396;2023-02-17T13:24:00;14.30;71.80
16271;DHT22;8243;49.048;8.396;2023-02-17T13:26:34;14.20;72.30
16271;DHT22;8243;49.048;8.396;2023-02-17T13:29:35;14.00;73.40
16271;DHT22;8243;49.048;8.396;2023-02-17T13:32:07;13.80;76.30
16271;DHT22;8243;49.048;8.396;2023-02-17T13:34:41;13.70;78.00
16271;DHT22;8243;49.048;8.396;2023-02-17T13:39:56;13.60;78.60
16271;DHT22;8243;49.048;8.396;2023-02-17T13:42:33;13.60;79.50
16271;DHT22;8243;49.048;8.396;2023-02-17T13:44:58;13.60;80.10
16271;DHT22;8243;49.048;8.396;2023-02-17T13:47:34;13.50;80.80
16271;DHT22;8243;49.048;8.396;2023-02-17T13:50:00;13.50;82.10
16271;DHT22;8243;49.048;8.396;2023-02-17T13:52:29;13.60;81.60
16271;DHT22;8243;49.048;8.396;2023-02-17T13:54:57;13.50;81.80
16271;DHT22;8243;49.048;8.396;2023-02-17T13:57:29;13.60;81.50
16271;DHT22;8243;49.048;8.396;2023-02-17T14:00:28;13.50;81.30
16271;DHT22;8243;49.048;8.396;2023-02-17T14:03:11;13.40;82.00
16271;DHT22;8243;49.048;8.396;2023-02-17T14:05:42;13.40;82.00
16271;DHT22;8243;49.048;8.396;2023-02-17T14:08:16;13.30;83.10
16271;DHT22;8243;49.048;8.396;2023-02-17T14:10:42;13.30;83.90
16271;DHT22;8243;49.048;8.396;2023-02-17T14:13:12;13.30;84.70
16271;DHT22;8243;49.048;8.396;2023-02-17T14:15:54;13.20;86.00
16271;DHT22;8243;49.048;8.396;2023-02-17T14:18:33;13.20;87.20
16271;DHT22;8243;49.048;8.396;2023-02-17T14:21:01;13.20;87.90
16271;DHT22;8243;49.048;8.396;2023-02-17T14:23:26;13.20;88.50
16271;DHT22;8243;49.048;8.396;2023-02-17T14:25:52;13.20;88.50
16271;DHT22;8243;49.048;8.396;2023-02-17T14:28:20;13.20;88.70
16271;DHT22;8243;49.048;8.396;2023-02-17T14:30:46;13.30;88.90
16271;DHT22;8243;49.048;8.396;2023-02-17T14:40:46;13.30;88.40
16271;DHT22;8243;49.048;8.396;2023-02-17T14:43:12;13.30;88.80
16271;DHT22;8243;49.048;8.396;2023-02-17T14:45:37;13.30;89.00
16271;DHT22;8243;49.048;8.396;2023-02-17T14:48:03;13.30;89.40
16271;DHT22;8243;49.048;8.396;2023-02-17T14:50:31;13.30;89.40
16271;DHT22;8243;49.048;8.396;2023-02-17T14:52:57;13.40;89.90
16271;DHT22;8243;49.048;8.396;2023-02-17T14:55:31;13.40;90.00
16271;DHT22;8243;49.048;8.396;2023-02-17T14:57:58;13.50;90.00
16271;DHT22;8243;49.048;8.396;2023-02-17T15:00:24;13.40;89.90
16271;DHT22;8243;49.048;8.396;2023-02-17T15:02:50;13.50;89.70
16271;DHT22;8243;49.048;8.396;2023-02-17T15:05:17;13.50;90.10
16271;DHT22;8243;49.048;8.396;2023-02-17T15:07:42;13.50;89.80
16271;DHT22;8243;49.048;8.396;2023-02-17T15:10:18;13.50;90.00
16271;DHT22;8243;49.048;8.396;2023-02-17T15:12:47;13.50;89.80
16271;DHT22;8243;49.048;8.396;2023-02-17T15:15:16;13.60;89.50
16271;DHT22;8243;49.048;8.396;2023-02-17T15:17:42;13.60;88.80
16271;DHT22;8243;49.048;8.396;2023-02-17T15:20:09;13.50;88.70
16271;DHT22;8243;49.048;8.396;2023-02-17T15:22:35;13.50;88.60
16271;DHT22;8243;49.048;8.396;2023-02-17T15:25:08;13.50;89.00
16271;DHT22;8243;49.048;8.396;2023-02-17T15:27:34;13.50;89.20
16271;DHT22;8243;49.048;8.396;2023-02-17T15:29:59;13.50;89.50
16271;DHT22;8243;49.048;8.396;2023-02-17T15:32:25;13.50;89.40
16271;DHT22;8243;49.048;8.396;2023-02-17T15:34:50;13.50;89.70
16271;DHT22;8243;49.048;8.396;2023-02-17T15:37:16;13.50;89.90
16271;DHT22;8243;49.048;8.396;2023-02-17T15:39:41;13.50;90.00
16271;DHT22;8243;49.048;8.396;2023-02-17T15:42:11;13.50;90.20
16271;DHT22;8243;49.048;8.396;2023-02-17T15:44:46;13.50;90.50
16271;DHT22;8243;49.048;8.396;2023-02-17T15:47:15;13.40;91.20
16271;DHT22;8243;49.048;8.396;2023-02-17T15:49:41;13.40;91.80
16271;DHT22;8243;49.048;8.396;2023-02-17T15:52:09;13.40;92.40
16271;DHT22;8243;49.048;8.396;2023-02-17T15:54:40;13.40;92.70
16271;DHT22;8243;49.048;8.396;2023-02-17T15:57:23;13.40;93.00
16271;DHT22;8243;49.048;8.396;2023-02-17T15:59:49;13.40;93.00
16271;DHT22;8243;49.048;8.396;2023-02-17T16:02:23;13.50;92.90
16271;DHT22;8243;49.048;8.396;2023-02-17T16:04:49;13.50;92.90
16271;DHT22;8243;49.048;8.396;2023-02-17T16:07:15;13.50;92.90
16271;DHT22;8243;49.048;8.396;2023-02-17T16:09:40;13.50;92.80
16271;DHT22;8243;49.048;8.396;2023-02-17T16:12:16;13.50;93.00
16271;DHT22;8243;49.048;8.396;2023-02-17T16:14:43;13.50;93.20
16271;DHT22;8243;49.048;8.396;2023-02-17T16:17:14;13.40;93.50
16271;DHT22;8243;49.048;8.396;2023-02-17T16:19:41;13.40;93.70
16271;DHT22;8243;49.048;8.396;2023-02-17T16:22:07;13.40;94.00
16271;DHT22;8243;49.048;8.396;2023-02-17T16:24:32;13.40;94.40
16271;DHT22;8243;49.048;8.396;2023-02-17T16:26:58;13.30;94.70
16271;DHT22;8243;49.048;8.396;2023-02-17T16:29:24;13.30;95.10
16271;DHT22;8243;49.048;8.396;2023-02-17T16:31:50;13.30;95.70
16271;DHT22;8243;49.048;8.396;2023-02-17T16:34:19;13.30;95.80
16271;DHT22;8243;49.048;8.396;2023-02-17T16:36:49;13.20;96.10
16271;DHT22;8243;49.048;8.396;2023-02-17T16:39:16;13.20;96.70
16271;DHT22;8243;49.048;8.396;2023-02-17T16:41:43;13.10;97.10
16271;DHT22;8243;49.048;8.396;2023-02-17T16:44:13;13.10;96.90
16271;DHT22;8243;49.048;8.396;2023-02-17T16:46:47;13.10;97.10
16271;DHT22;8243;49.048;8.396;2023-02-17T16:51:50;13.00;97.90
16271;DHT22;8243;49.048;8.396;2023-02-17T16:54:16;13.00;98.40
16271;DHT22;8243;49.048;8.396;2023-02-17T16:56:44;13.10;98.80
16271;DHT22;8243;49.048;8.396;2023-02-17T16:59:13;13.10;99.10
16271;DHT22;8243;49.048;8.396;2023-02-17T17:01:39;13.10;98.90
16271;DHT22;8243;49.048;8.396;2023-02-17T17:04:04;13.10;98.90
16271;DHT22;8243;49.048;8.396;2023-02-17T17:06:31;13.20;99.00
16271;DHT22;8243;49.048;8.396;2023-02-17T17:08:56;13.10;99.10
16271;DHT22;8243;49.048;8.396;2023-02-17T17:11:24;13.10;99.00
16271;DHT22;8243;49.048;8.396;2023-02-17T17:13:51;13.10;99.20
16271;DHT22;8243;49.048;8.396;2023-02-17T17:16:21;13.10;99.40